Flight Track Log - Related Links

Times and Time Zones

All times are in EDT time to prevent confusion due to time zone crossing. See the SWA385 flight status page for this flight to view local times or setup timezone preferences in your user account.

Time Position Orientation Groundspeed Altitude Reporting Facility
EDT Latitude Longitude Course Direction KTS MPH feet Rate Location/Type
Sun 05:47:46 PM 43.6503 -70.4464 228° Southwest 214 246 5,200  Level Boston Center
Sun 05:48:46 PM 43.5939 -70.5081 218° Southwest 264 304 9,200 3,074 Climbing Boston Center
Sun 05:49:47 PM 43.5275 -70.5664 213° Southwest 283 326 11,400 2,544 Climbing Boston Center
Sun 05:50:51 PM 43.4369 -70.6061 198° South 342 394 14,500 3,145 Climbing Boston Center
Sun 05:51:51 PM 43.3444 -70.6456 197° South 342 394 17,900 3,050 Climbing Boston Center
Sun 05:52:00 PM 43.3762 -70.4067 226° Southwest  Level FlightAware Approximate
Sun 05:52:51 PM 43.2511 -70.6831 196° South 336 387 20,600  Level Boston Center
Sun 05:53:00 PM 43.3143 -70.4952 228° Southwest  Level FlightAware Approximate
Sun 05:53:55 PM 43.1608 -70.7203 197° South 337 388 22,800  Level Boston Center
Sun 05:54:55 PM 43.0772 -70.7806 208° Southwest 337 388 24,900 2,033 Climbing Boston Center
Sun 05:55:56 PM 42.9936 -70.8419 208° Southwest 339 390 26,900 2,430 Climbing Boston Center
Sun 05:56:56 PM 42.9114 -70.9003 207° Southwest 335 386 29,800 2,226 Climbing Boston Center
Sun 05:58:00 PM 42.8339 -70.9550 207° Southwest 317 365 31,500 1,056 Climbing Boston Center
Sun 05:59:01 PM 42.7814 -71.0456 232° Southwest 311 358 32,000 246 Climbing Boston Center
Sun 06:00:02 PM 42.7211 -71.1664 236° Southwest 320 368 32,000  Level Boston Center
Sun 06:01:04 PM 42.6692 -71.2689 235° Southwest 324 373 32,000 492 Level Boston Center
Sun 06:02:04 PM 42.6172 -71.3703 235° Southwest 326 375 33,000 1,122 Climbing Boston Center
Sun 06:03:07 PM 42.5686 -71.4672 236° Southwest 317 365 34,300 968 Climbing Boston Center
Sun 06:04:08 PM 42.5139 -71.5764 236° Southwest 327 376 35,000 836 Climbing Boston Center
Sun 06:05:09 PM 42.4622 -71.6800 236° Southwest 330 380 36,000 496 Climbing Boston Center
Sun 06:06:09 PM 42.4094 -71.7850 236° Southwest 332 382 36,000  Level Boston Center
Sun 06:07:11 PM 42.3547 -71.8911 235° Southwest 340 391 36,000  Level Boston Center
Sun 06:08:14 PM 42.2992 -71.9958 234° Southwest 341 392 36,000  Level Boston Center
Sun 06:09:14 PM 42.2358 -72.0958 229° Southwest 346 398 36,000  Level Boston Center
Sun 06:10:15 PM 42.1719 -72.1964 229° Southwest 348 400 36,000  Level Boston Center
Sun 06:11:18 PM 42.1086 -72.2958 229° Southwest 349 402 36,000  Level Boston Center
Sun 06:12:19 PM 42.0453 -72.3961 230° Southwest 350 403 36,000  Level Boston Center
Sun 06:13:20 PM 41.9686 -72.5181 230° Southwest 353 406 36,000  Level Boston Center
Sun 06:14:20 PM 41.9036 -72.6189 229° Southwest 353 406 36,000  Level Boston Center
Sun 06:15:24 PM 41.8397 -72.7203 230° Southwest 354 407 36,000  Level Boston Center
Sun 06:16:25 PM 41.7756 -72.8194 229° Southwest 354 407 36,000  Level Boston Center
Sun 06:17:26 PM 41.7103 -72.9197 229° Southwest 354 407 36,000  Level Boston Center
Sun 06:18:29 PM 41.6450 -73.0211 229° Southwest 356 410 36,000  Level Boston Center
Sun 06:19:30 PM 41.5800 -73.1228 229° Southwest 357 411 36,000  Level Boston Center
Sun 06:20:30 PM 41.5092 -73.2328 229° Southwest 359 413 36,000  Level Boston Center
Sun 06:21:31 PM 41.4433 -73.3325 229° Southwest 360 414 36,000  Level Boston Center
Sun 06:22:34 PM 41.3778 -73.4328 229° Southwest 360 414 36,000  Level Boston Center
Sun 06:23:36 PM 41.3139 -73.5350 230° Southwest 360 414 36,000  Level Boston Center
Sun 06:24:36 PM 41.2522 -73.6397 232° Southwest 361 415 36,000  Level Boston Center
Sun 06:25:28 PM 41.1864 -73.7514 232° Southwest 366 421 36,000  Level New York Center
Sun 06:26:28 PM 41.1233 -73.8561 231° Southwest 366 421 36,000  Level New York Center
Sun 06:27:28 PM 41.0622 -73.9606 232° Southwest 366 421 36,000  Level New York Center
Sun 06:28:28 PM 41.0014 -74.0567 230° Southwest 368 423 36,000 -550 Level New York Center
Sun 06:29:28 PM 40.9422 -74.1581 232° Southwest 368 423 34,900 -1,950 Descending New York Center
Sun 06:30:28 PM 40.8811 -74.2539 230° Southwest 363 418 32,100 -3,000 Descending New York Center
Sun 06:31:28 PM 40.8219 -74.3522 232° Southwest 358 412 28,900 -2,050 Descending New York Center
Sun 06:32:28 PM 40.7650 -74.4425 230° Southwest 346 398 28,000 -450 Descending New York Center
Sun 06:33:28 PM 40.7122 -74.5300 232° Southwest 327 376 28,000 -550 Level New York Center
Sun 06:34:28 PM 40.6550 -74.6253 232° Southwest 327 376 26,900 -1,350 Descending New York Center
Sun 06:35:28 PM 40.6019 -74.7125 231° Southwest 327 376 25,300 -1,550 Descending New York Center
Sun 06:36:28 PM 40.5472 -74.7914 228° Southwest 317 365 23,800 -1,500 Descending New York Center
Sun 06:37:28 PM 40.4925 -74.8700 228° Southwest 307 353 22,300 -1,500 Descending New York Center
Sun 06:38:28 PM 40.4397 -74.9458 228° Southwest 302 348 20,800 -1,650 Descending New York Center
Sun 06:39:28 PM 40.4336 -75.0628 266° West 276 318 19,000 -1,650 Descending New York Center
Sun 06:40:28 PM 40.3989 -75.1533 243° Southwest 287 330 17,500 -1,500 Descending New York Center
Sun 06:41:28 PM 40.3467 -75.2153 222° Southwest 287 330 16,000 -750 Descending New York Center
Sun 06:42:28 PM 40.2792 -75.2872 219° Southwest 287 330 16,000  Level New York Center
Sun 06:43:28 PM 40.2206 -75.3514 220° Southwest 287 330 16,000  Level New York Center
Sun 06:44:28 PM 40.1578 -75.4125 217° Southwest 287 330 16,000  Level New York Center
Sun 06:45:28 PM 40.1097 -75.4689 222° Southwest 282 325 16,000  Level New York Center
Sun 06:46:28 PM 40.0464 -75.5378 220° Southwest 271 312 16,000  Level New York Center
Sun 06:47:28 PM 39.9919 -75.5936 218° Southwest 271 312 16,000  Level New York Center
Sun 06:48:28 PM 39.9267 -75.6622 219° Southwest 271 312 16,000 -550 Level New York Center
Sun 06:49:28 PM 39.8839 -75.7350 233° Southwest 281 323 14,900 -1,200 Descending New York Center
Sun 06:50:28 PM 39.8342 -75.8289 235° Southwest 290 334 13,600 -874 Descending New York Center
Sun 06:52:47 PM 39.7333 -76.0333 237° Southwest 287 330 12,000 -480 Descending Potomac TRACON
Sun 06:53:48 PM 39.6833 -76.1167 232° Southwest 292 336 12,000 -595 Level Potomac TRACON
Sun 06:54:48 PM 39.6500 -76.2000 243° Southwest 265 305 10,800 -1,550 Descending Potomac TRACON
Sun 06:55:48 PM 39.6000 -76.2667 226° Southwest 254 292 8,900 -1,700 Descending Potomac TRACON
Sun 06:56:48 PM 39.5500 -76.3333 226° Southwest 270 311 7,400 -1,500 Descending Potomac TRACON
Sun 06:57:48 PM 39.4833 -76.3833 210° Southwest 265 305 5,900 -1,500 Descending Potomac TRACON
Sun 06:58:48 PM 39.4167 -76.4167 201° Southwest 268 308 4,400 -1,200 Descending Potomac TRACON
Sun 06:59:48 PM 39.3500 -76.4333 191° South 269 310 3,500 -700 Descending Potomac TRACON
Sun 07:00:48 PM 39.2833 -76.4833 210° Southwest 255 293 3,000 -667 Descending Potomac TRACON
Sun 07:01:54 PM 39.2167 -76.5333 210° Southwest 261 300 2,100 -496 Descending Potomac TRACON
Sun 07:02:49 PM 39.1667 -76.5667 207° Southwest 223 257 2,000 -313 Descending Potomac TRACON
Sun 07:03:49 PM 39.1167 -76.6000 207° Southwest 177 204 1,500 -571 Descending Potomac TRACON
Sun 07:04:55 PM 39.1333 -76.6333 303° West 114 131 800 -636 Descending Potomac TRACON

Login

Don't have an account? Register now (free) for customized features, flight alerts, and more!